Time;durP1;ratioP1;P1;durP2;ratioP2;P2;SDS_P1;SDS_P2;PMS_P1;PMS_P2;Temp;Humidity;BMP_temperature;BMP_pressure;BME280_temperature;BME280_humidity;BME280_pressure;Samples;Min_cycle;Max_cycle;Signal;HPM_P1;HPM_P2
2023/09/24 00:01:12;;;;;;;6.18;2.60;;;;;;;10.49;100.00;97315.72;5000004;28;20099;-68
2023/09/24 00:03:37;;;;;;;3.85;2.20;;;;;;;10.59;100.00;97322.66;5003720;28;20038;-68
2023/09/24 00:06:09;;;;;;;5.57;2.17;;;;;;;10.68;100.00;97327.97;5007347;28;20110;-65
2023/09/24 00:08:34;;;;;;;4.93;2.10;;;;;;;10.77;100.00;97325.84;5004838;28;20524;-68
2023/09/24 00:11:02;;;;;;;3.25;2.00;;;;;;;10.87;100.00;97330.00;5003432;28;20049;-69
2023/09/24 00:13:28;;;;;;;3.17;2.10;;;;;;;10.82;100.00;97333.81;4999609;28;20057;-68
2023/09/24 00:15:54;;;;;;;6.80;2.75;;;;;;;10.67;100.00;97331.84;5002528;28;20041;-67
2023/09/24 00:18:19;;;;;;;5.60;2.30;;;;;;;10.67;100.00;97318.94;4999369;28;20061;-69
2023/09/24 00:20:45;;;;;;;3.20;2.20;;;;;;;10.69;100.00;97322.09;5003383;28;20044;-67
2023/09/24 00:23:11;;;;;;;8.45;2.50;;;;;;;10.59;100.00;97319.91;4998659;28;20042;-68
2023/09/24 00:25:37;;;;;;;5.03;2.30;;;;;;;10.65;100.00;97320.44;5003487;28;20038;-69
2023/09/24 00:28:03;;;;;;;5.35;2.30;;;;;;;10.71;100.00;97325.31;5004312;28;20073;-66
2023/09/24 00:30:29;;;;;;;4.25;2.00;;;;;;;10.72;100.00;97328.84;5001064;28;20042;-69
2023/09/24 00:32:54;;;;;;;5.07;2.20;;;;;;;10.73;100.00;97327.69;5002350;28;20046;-68
2023/09/24 00:35:20;;;;;;;5.68;2.10;;;;;;;10.72;100.00;97328.84;4998351;28;20052;-69
2023/09/24 00:37:45;;;;;;;3.40;2.00;;;;;;;10.77;100.00;97334.06;5011558;28;20034;-69
2023/09/24 00:40:11;;;;;;;4.65;2.00;;;;;;;10.70;100.00;97331.94;4995871;28;20053;-69
2023/09/24 00:42:37;;;;;;;10.82;3.60;;;;;;;10.74;100.00;97333.97;5002982;28;20068;-68
2023/09/24 00:45:09;;;;;;;4.70;2.03;;;;;;;10.64;100.00;97333.34;5016631;28;20038;-67
2023/09/24 00:47:37;;;;;;;6.40;1.92;;;;;;;10.60;100.00;97337.13;4995055;28;20049;-69
2023/09/24 00:50:02;;;;;;;3.58;1.85;;;;;;;10.60;100.00;97326.97;5001361;28;20050;-66
2023/09/24 00:52:28;;;;;;;3.72;1.65;;;;;;;10.58;100.00;97326.53;5000266;28;20050;-68
2023/09/24 00:54:56;;;;;;;5.32;2.10;;;;;;;10.53;100.00;97332.25;5014235;28;20088;-67
2023/09/24 00:57:23;;;;;;;3.17;1.70;;;;;;;10.49;100.00;97325.88;5002271;28;20045;-68
2023/09/24 00:59:49;;;;;;;7.63;1.90;;;;;;;10.48;100.00;97325.09;5001785;28;20040;-69
2023/09/24 01:02:16;;;;;;;4.03;1.65;;;;;;;10.44;100.00;97328.88;4995918;28;20400;-68
2023/09/24 01:04:44;;;;;;;3.70;1.50;;;;;;;10.40;100.00;97326.03;5001717;28;20044;-68
2023/09/24 01:07:09;;;;;;;4.68;1.90;;;;;;;10.37;100.00;97328.69;4997413;28;20148;-69
2023/09/24 01:09:35;;;;;;;3.78;1.90;;;;;;;10.35;100.00;97337.25;5001953;28;20129;-68
2023/09/24 01:12:03;;;;;;;3.13;1.75;;;;;;;10.31;100.00;97347.31;5002291;28;20041;-69
2023/09/24 01:14:29;;;;;;;3.63;1.40;;;;;;;10.23;100.00;97348.25;4998867;28;21749;-69
2023/09/24 01:16:55;;;;;;;5.18;1.67;;;;;;;10.17;100.00;97353.16;5001745;28;20042;-69
2023/09/24 01:19:23;;;;;;;3.55;1.60;;;;;;;10.04;100.00;97351.59;4995615;28;20492;-69
2023/09/24 01:21:50;;;;;;;3.85;1.50;;;;;;;9.99;100.00;97347.16;5000308;28;20044;-69
2023/09/24 01:24:15;;;;;;;3.08;1.50;;;;;;;9.95;100.00;97349.00;5012232;28;20054;-69
2023/09/24 01:26:41;;;;;;;3.17;1.30;;;;;;;9.92;100.00;97360.63;5017523;28;20546;-68
2023/09/24 01:29:09;;;;;;;3.60;1.30;;;;;;;9.84;100.00;97358.84;5007519;28;20049;-67
2023/09/24 01:31:36;;;;;;;2.97;1.40;;;;;;;9.73;100.00;97364.78;5002838;28;20516;-67
2023/09/24 01:34:05;;;;;;;5.93;1.80;;;;;;;9.68;100.00;97359.53;5002264;28;20050;-66
2023/09/24 01:36:32;;;;;;;5.27;1.73;;;;;;;9.64;100.00;97363.34;5001916;28;20384;-68
2023/09/24 01:38:58;;;;;;;5.97;1.65;;;;;;;9.40;100.00;97364.13;5007368;28;20041;-68
2023/09/24 01:41:25;;;;;;;3.03;1.50;;;;;;;9.14;100.00;97363.34;4997196;28;20115;-69
2023/09/24 01:43:51;;;;;;;4.00;1.60;;;;;;;9.07;100.00;97365.03;5001097;28;20045;-68
2023/09/24 01:46:20;;;;;;;5.45;1.67;;;;;;;9.12;100.00;97362.09;4995997;28;20452;-67
2023/09/24 01:48:50;;;;;;;4.95;1.77;;;;;;;9.19;100.00;97349.44;5001316;28;20049;-68
2023/09/24 01:51:15;;;;;;;5.10;1.88;;;;;;;9.10;100.00;97356.16;4996419;28;20085;-68
2023/09/24 01:53:42;;;;;;;3.38;1.52;;;;;;;8.97;100.00;97355.38;5001752;28;20034;-68
2023/09/24 01:56:07;;;;;;;5.38;1.58;;;;;;;8.93;100.00;97362.63;4996949;28;20052;-67
2023/09/24 01:58:34;;;;;;;3.53;1.88;;;;;;;8.95;100.00;97360.38;5001175;28;20046;-67
2023/09/24 02:01:02;;;;;;;3.38;1.70;;;;;;;8.96;100.00;97367.41;5000973;28;20052;-67
2023/09/24 02:03:28;;;;;;;3.17;1.88;;;;;;;8.95;100.00;97369.38;5013052;28;20049;-67
2023/09/24 02:05:53;;;;;;;4.32;1.90;;;;;;;8.88;100.00;97365.59;5007419;28;20033;-67
2023/09/24 02:08:19;;;;;;;3.15;1.77;;;;;;;8.66;100.00;97373.06;5002436;28;20045;-70
2023/09/24 02:10:45;;;;;;;3.10;1.80;;;;;;;8.50;100.00;97377.53;5001437;28;20192;-67
2023/09/24 02:13:12;;;;;;;4.88;1.90;;;;;;;8.46;100.00;97380.16;4997066;28;20041;-67
2023/09/24 02:15:43;;;;;;;3.78;2.30;;;;;;;8.40;100.00;97376.81;4992977;28;20044;-67
2023/09/24 02:18:09;;;;;;;3.50;1.80;;;;;;;8.54;100.00;97382.00;4997113;28;20053;-66
2023/09/24 02:20:35;;;;;;;4.20;2.00;;;;;;;8.60;100.00;97382.59;5000541;28;20045;-67
2023/09/24 02:23:03;;;;;;;3.47;1.88;;;;;;;8.68;100.00;97379.00;5001014;28;20054;-67
2023/09/24 02:25:31;;;;;;;4.00;1.75;;;;;;;8.75;100.00;97384.69;5000183;28;20038;-69
2023/09/24 02:27:57;;;;;;;3.13;1.75;;;;;;;8.70;100.00;97376.72;4999487;28;20088;-68
2023/09/24 02:30:24;;;;;;;3.45;1.70;;;;;;;8.65;100.00;97379.66;4993331;28;20512;-68
2023/09/24 02:32:50;;;;;;;2.00;1.40;;;;;;;8.50;100.00;97377.53;5002095;28;20132;-67
2023/09/24 02:35:16;;;;;;;1.90;1.20;;;;;;;8.51;100.00;97374.47;4994988;28;20602;-68
2023/09/24 02:37:50;;;;;;;4.53;1.55;;;;;;;8.36;100.00;97375.09;5000554;28;20038;-66
2023/09/24 02:42:47;;;;;;;4.30;1.70;;;;;;;8.36;100.00;97381.34;5000500;28;20038;-68
2023/09/24 02:45:15;;;;;;;3.17;1.67;;;;;;;8.40;100.00;97378.75;4996241;28;20046;-66
2023/09/24 02:47:41;;;;;;;2.75;1.42;;;;;;;8.35;100.00;97379.75;5001207;28;20080;-68
2023/09/24 02:50:08;;;;;;;4.30;1.55;;;;;;;8.32;100.00;97383.16;4996622;28;20136;-67
2023/09/24 02:52:35;;;;;;;2.72;1.40;;;;;;;8.32;100.00;97385.88;5000372;28;20416;-68
2023/09/24 02:55:01;;;;;;;2.72;1.48;;;;;;;8.31;100.00;97381.53;4999454;28;20046;-67
2023/09/24 02:57:27;;;;;;;2.92;1.42;;;;;;;8.30;100.00;97385.44;4996439;28;20393;-70
2023/09/24 02:59:52;;;;;;;3.92;1.70;;;;;;;8.24;100.00;97390.28;4999974;28;20046;-67
2023/09/24 03:02:17;;;;;;;4.72;1.70;;;;;;;8.19;100.00;97392.41;5004885;28;20519;-67
2023/09/24 03:04:43;;;;;;;2.47;1.45;;;;;;;8.16;100.00;97393.88;5001983;28;20519;-67
2023/09/24 03:07:10;;;;;;;2.30;1.35;;;;;;;8.06;100.00;97401.66;4996055;28;20108;-67
2023/09/24 03:09:36;;;;;;;3.40;1.70;;;;;;;7.89;100.00;97402.63;5000947;28;20129;-67
2023/09/24 03:12:01;;;;;;;2.95;1.70;;;;;;;7.76;100.00;97398.97;5000909;28;20142;-67
2023/09/24 03:14:27;;;;;;;1.85;1.63;;;;;;;7.69;100.00;97410.44;5004621;28;20088;-68
2023/09/24 03:16:53;;;;;;;4.45;2.13;;;;;;;7.67;100.00;97404.50;5004776;28;20041;-67
2023/09/24 03:19:19;;;;;;;2.50;1.77;;;;;;;7.74;100.00;97402.06;5001228;28;20038;-68
2023/09/24 03:21:44;;;;;;;4.57;1.60;;;;;;;7.85;100.00;97414.19;5012426;28;20045;-67
2023/09/24 03:24:14;;;;;;;4.10;1.83;;;;;;;7.69;100.00;97398.72;5005221;28;20049;-66
2023/09/24 03:26:40;;;;;;;4.75;1.60;;;;;;;7.46;100.00;97405.25;5003515;28;20103;-67
2023/09/24 03:29:05;;;;;;;2.63;1.70;;;;;;;7.27;100.00;97408.41;5006860;28;20060;-67
2023/09/24 03:31:33;;;;;;;3.42;1.83;;;;;;;7.12;100.00;97417.09;5002163;28;20117;-66
2023/09/24 03:33:58;;;;;;;7.13;1.90;;;;;;;7.16;100.00;97423.50;5006319;28;20534;-68
2023/09/24 03:36:24;;;;;;;4.13;1.77;;;;;;;7.27;100.00;97421.22;4997951;28;20080;-66
2023/09/24 03:38:49;;;;;;;2.88;1.80;;;;;;;7.43;100.00;97424.19;5004237;28;20042;-66
2023/09/24 03:41:15;;;;;;;2.55;1.75;;;;;;;7.53;100.00;97428.50;4998037;28;20132;-67
2023/09/24 03:43:42;;;;;;;3.58;1.63;;;;;;;7.56;100.00;97431.34;5019317;28;20041;-67
2023/09/24 03:46:09;;;;;;;3.03;1.58;;;;;;;7.52;100.00;97429.59;4998551;28;20053;-67
2023/09/24 03:48:35;;;;;;;6.05;1.63;;;;;;;7.46;100.00;97423.53;5003242;28;20054;-67
2023/09/24 03:51:01;;;;;;;2.63;1.30;;;;;;;7.33;100.00;97425.38;5000350;28;20054;-66
2023/09/24 03:53:26;;;;;;;2.53;1.73;;;;;;;7.25;100.00;97426.19;5022707;28;20091;-66
2023/09/24 03:55:53;;;;;;;3.63;1.33;;;;;;;7.35;100.00;97427.78;5013386;28;20396;-67
2023/09/24 03:58:18;;;;;;;2.08;1.58;;;;;;;7.42;100.00;97422.59;5004913;28;20065;-66
2023/09/24 04:00:44;;;;;;;3.85;1.58;;;;;;;7.54;100.00;97430.84;5002796;28;20046;-67
2023/09/24 04:03:09;;;;;;;2.60;1.50;;;;;;;7.59;100.00;97436.13;4997040;28;20077;-67
2023/09/24 04:05:35;;;;;;;1.95;1.40;;;;;;;7.55;100.00;97435.19;5001352;28;20049;-66
2023/09/24 04:08:03;;;;;;;1.83;1.15;;;;;;;7.57;100.00;97441.13;5003643;28;20054;-67
2023/09/24 04:10:30;;;;;;;3.33;1.80;;;;;;;7.51;100.00;97438.91;5007090;28;20472;-66
2023/09/24 04:13:00;;;;;;;2.35;1.33;;;;;;;7.55;100.00;97445.31;5003173;28;20073;-66
2023/09/24 04:15:28;;;;;;;4.93;1.70;;;;;;;7.55;100.00;97437.13;5007587;28;20050;-67
2023/09/24 04:17:57;;;;;;;2.90;1.65;;;;;;;7.49;100.00;97438.44;5004018;28;20485;-66
2023/09/24 04:20:26;;;;;;;3.47;1.60;;;;;;;7.49;100.00;97438.44;4998989;28;20050;-66
2023/09/24 04:22:52;;;;;;;5.00;1.50;;;;;;;7.46;100.00;97448.06;5002790;28;20034;-66
2023/09/24 04:25:20;;;;;;;3.92;1.67;;;;;;;7.51;100.00;97441.63;4997625;28;20053;-67
2023/09/24 04:27:46;;;;;;;2.00;1.40;;;;;;;7.51;100.00;97450.63;5010931;28;20121;-67
2023/09/24 04:30:19;;;;;;;2.25;1.73;;;;;;;7.53;100.00;97444.84;4996303;28;20486;-67
2023/09/24 04:32:49;;;;;;;4.57;1.83;;;;;;;7.43;100.00;97443.25;4996228;28;20504;-66
2023/09/24 04:35:19;;;;;;;4.60;1.58;;;;;;;7.35;100.00;97455.03;5002465;28;20049;-66
2023/09/24 04:37:45;;;;;;;8.05;1.65;;;;;;;7.14;100.00;97452.22;4999034;28;20041;-66
2023/09/24 04:40:14;;;;;;;3.03;1.80;;;;;;;6.97;100.00;97467.47;5004913;28;20050;-67
2023/09/24 04:42:45;;;;;;;4.25;1.67;;;;;;;6.97;100.00;97461.22;5002534;28;20404;-67
2023/09/24 04:45:11;;;;;;;3.85;2.08;;;;;;;6.99;100.00;97461.72;4998970;28;20535;-66
2023/09/24 04:47:41;;;;;;;2.65;1.58;;;;;;;7.04;100.00;97464.22;5001088;28;20053;-65
2023/09/24 04:50:12;;;;;;;2.67;1.35;;;;;;;7.03;100.00;97463.44;4997418;28;20081;-64
2023/09/24 04:52:38;;;;;;;3.05;1.52;;;;;;;6.96;100.00;97471.31;5002729;28;20475;-67
2023/09/24 04:55:05;;;;;;;4.05;1.65;;;;;;;6.71;100.00;97467.50;5002695;28;20046;-64
2023/09/24 04:57:31;;;;;;;2.88;1.75;;;;;;;6.58;100.00;97479.38;5008521;28;20078;-67
2023/09/24 04:59:56;;;;;;;6.60;1.80;;;;;;;6.72;100.00;97473.75;5001910;28;20037;-68
2023/09/24 05:02:23;;;;;;;2.58;1.67;;;;;;;6.85;100.00;97472.78;5009002;28;20610;-67
2023/09/24 05:04:49;;;;;;;4.78;1.60;;;;;;;6.91;100.00;97476.13;5009281;28;20105;-68
2023/09/24 05:07:15;;;;;;;4.55;1.75;;;;;;;6.97;100.00;97480.28;4997885;28;20053;-69
2023/09/24 05:09:40;;;;;;;2.47;1.70;;;;;;;7.06;100.00;97481.88;5001936;28;20100;-68
2023/09/24 05:12:06;;;;;;;6.53;1.67;;;;;;;7.11;100.00;97480.09;5004105;28;20048;-68
2023/09/24 05:14:31;;;;;;;2.88;1.60;;;;;;;7.11;100.00;97480.88;5001599;28;20072;-69
2023/09/24 05:16:58;;;;;;;4.47;1.88;;;;;;;7.01;100.00;97483.97;5001156;28;20076;-69
2023/09/24 05:19:23;;;;;;;2.97;1.88;;;;;;;7.02;100.00;97485.56;4997252;28;20120;-68
2023/09/24 05:21:49;;;;;;;2.33;1.45;;;;;;;7.03;100.00;97482.50;5002524;28;20034;-68
2023/09/24 05:24:14;;;;;;;4.18;1.85;;;;;;;7.09;100.00;97494.03;4997476;28;20065;-68
2023/09/24 05:26:40;;;;;;;8.20;1.80;;;;;;;7.25;100.00;97502.47;5001299;28;20041;-67
2023/09/24 05:29:05;;;;;;;3.58;1.80;;;;;;;7.55;100.00;97495.16;5003889;28;20084;-67
2023/09/24 05:31:31;;;;;;;3.53;1.77;;;;;;;7.94;100.00;97495.13;5002016;28;20050;-66
2023/09/24 05:33:56;;;;;;;3.65;1.67;;;;;;;8.32;100.00;97497.78;5002845;28;20046;-66
2023/09/24 05:36:22;;;;;;;5.07;1.60;;;;;;;8.78;100.00;97501.44;4999161;28;20054;-68
2023/09/24 05:38:50;;;;;;;3.22;1.70;;;;;;;9.25;100.00;97503.09;5005504;28;20194;-68
2023/09/24 05:41:16;;;;;;;4.47;1.50;;;;;;;9.70;100.00;97507.72;5000981;28;20076;-67
2023/09/24 05:43:44;;;;;;;3.20;1.20;;;;;;;10.14;100.00;97499.72;5001304;28;20484;-67
2023/09/24 05:46:14;;;;;;;2.35;1.33;;;;;;;10.71;100.00;97508.06;4996661;28;20408;-67
2023/09/24 05:48:39;;;;;;;;;;;;;;;11.26;100.00;97503.72;5000951;28;20067;-67
2023/09/24 05:51:04;;;;;;;3.65;1.50;;;;;;;11.81;100.00;97512.16;4996794;28;20303;-66
2023/09/24 05:53:30;;;;;;;3.03;1.30;;;;;;;12.41;100.00;97512.00;4997837;28;20491;-68
2023/09/24 05:55:55;;;;;;;6.60;1.38;;;;;;;12.63;100.00;97512.47;5002485;28;20048;-68
2023/09/24 05:58:21;;;;;;;6.25;1.73;;;;;;;13.18;100.00;97520.63;4997162;28;20041;-67
2023/09/24 06:00:47;;;;;;;3.97;1.00;;;;;;;13.81;97.57;97519.47;5001340;28;20398;-68
2023/09/24 06:03:14;;;;;;;2.80;1.20;;;;;;;14.34;92.93;97525.00;4996535;28;20073;-68
2023/09/24 06:05:40;;;;;;;3.30;1.25;;;;;;;14.91;90.23;97521.47;5000161;28;20477;-67
2023/09/24 06:08:06;;;;;;;2.33;1.00;;;;;;;15.52;83.85;97535.94;4997225;28;20448;-67
2023/09/24 06:10:32;;;;;;;5.40;1.10;;;;;;;15.90;79.62;97536.72;5000483;28;20116;-67
2023/09/24 06:12:57;;;;;;;2.97;1.20;;;;;;;16.06;75.94;97539.19;4999868;28;20636;-68
2023/09/24 06:15:22;;;;;;;3.45;1.25;;;;;;;16.15;76.11;97538.88;4995925;28;20948;-67
2023/09/24 06:17:51;;;;;;;4.40;1.20;;;;;;;15.88;75.06;97546.56;5001618;28;20046;-65
2023/09/24 06:20:17;;;;;;;5.97;1.00;;;;;;;15.27;78.07;97539.22;4997132;28;20046;-68
2023/09/24 06:22:53;;;;;;;2.03;1.20;;;;;;;12.27;100.00;97530.91;5000431;28;20049;-67
2023/09/24 06:25:19;;;;;;;3.47;1.20;;;;;;;12.31;100.00;97531.00;4996821;28;20046;-66
2023/09/24 06:27:44;;;;;;;2.85;1.35;;;;;;;12.89;100.00;97533.84;4997107;28;20042;-67
2023/09/24 06:30:10;;;;;;;2.95;1.13;;;;;;;14.40;94.85;97539.25;4994792;28;20061;-66
2023/09/24 06:32:36;;;;;;;2.95;1.30;;;;;;;14.16;92.20;97540.47;5003184;28;20091;-67
2023/09/24 06:35:02;;;;;;;2.75;1.10;;;;;;;14.41;90.78;97546.34;5015453;28;20045;-68
2023/09/24 06:37:29;;;;;;;5.30;1.40;;;;;;;14.42;91.86;97539.69;5006850;28;20076;-68
2023/09/24 06:39:54;;;;;;;1.63;1.00;;;;;;;14.19;93.13;97539.72;5003612;28;20037;-67
2023/09/24 06:42:20;;;;;;;2.72;1.20;;;;;;;15.60;89.18;97537.59;4996502;28;20057;-67
2023/09/24 06:44:45;;;;;;;6.03;1.33;;;;;;;17.49;75.33;97544.75;5001387;28;20041;-67
2023/09/24 06:47:11;;;;;;;3.95;1.20;;;;;;;18.46;66.40;97555.13;4991948;28;20409;-67
2023/09/24 06:49:37;;;;;;;3.95;1.20;;;;;;;18.78;66.44;97555.06;4999931;28;20409;-68
2023/09/24 06:52:03;;;;;;;2.95;0.90;;;;;;;18.80;62.17;97557.44;4999083;28;20492;-64
2023/09/24 06:54:28;;;;;;;2.28;1.20;;;;;;;18.63;63.72;97553.50;4998207;28;20053;-67
2023/09/24 06:56:53;;;;;;;3.58;1.20;;;;;;;19.21;60.88;97554.97;5001708;28;20045;-67
2023/09/24 06:59:19;;;;;;;3.63;1.35;;;;;;;19.27;61.11;97561.66;4996237;28;20137;-67
2023/09/24 07:01:44;;;;;;;3.75;1.10;;;;;;;18.65;65.02;97553.91;5011782;28;20786;-68
2023/09/24 07:04:10;;;;;;;3.53;1.50;;;;;;;20.10;58.86;97568.75;5000067;28;20072;-67
2023/09/24 07:06:35;;;;;;;3.05;1.35;;;;;;;21.45;54.71;97568.63;5004450;28;20065;-66
2023/09/24 07:09:01;;;;;;;2.75;1.00;;;;;;;21.17;54.68;97562.16;5014137;28;20042;-68
2023/09/24 07:11:31;;;;;;;3.28;1.40;;;;;;;21.36;55.11;97568.31;5000208;28;20511;-67
2023/09/24 07:13:56;;;;;;;3.80;1.13;;;;;;;21.44;53.44;97567.00;4999678;28;20060;-68
2023/09/24 07:16:23;;;;;;;4.63;1.20;;;;;;;21.91;53.04;97571.97;4998237;28;21574;-66
2023/09/24 07:18:50;;;;;;;3.00;1.40;;;;;;;21.21;52.46;97573.25;5005183;28;20061;-66
2023/09/24 07:21:20;;;;;;;2.95;1.20;;;;;;;22.35;51.76;97575.69;5022124;28;20446;-67
2023/09/24 07:23:51;;;;;;;4.57;1.48;;;;;;;22.60;50.56;97575.25;5004523;28;20064;-67
2023/09/24 07:26:17;;;;;;;5.28;1.23;;;;;;;22.62;51.22;97570.03;4999511;28;20056;-66
2023/09/24 07:28:43;;;;;;;2.10;0.93;;;;;;;20.46;56.06;97566.47;5001873;28;20404;-67
2023/09/24 07:31:34;;;;;;;5.43;1.30;;;;;;;15.76;86.07;97545.66;4998625;28;20428;-66
2023/09/24 07:34:01;;;;;;;4.90;1.30;;;;;;;15.22;94.39;97536.81;4999068;28;20049;-66
2023/09/24 07:36:28;;;;;;;4.60;1.30;;;;;;;15.02;99.06;97541.69;4999155;28;20049;-66
2023/09/24 07:38:53;;;;;;;3.10;1.35;;;;;;;14.66;100.00;97543.19;5007367;28;20136;-68
2023/09/24 07:41:20;;;;;;;2.53;1.30;;;;;;;14.35;100.00;97542.34;5013574;28;20069;-66
2023/09/24 07:43:46;;;;;;;10.32;1.80;;;;;;;15.76;94.64;97542.91;5010662;28;20038;-67
2023/09/24 07:46:12;;;;;;;6.13;1.80;;;;;;;15.77;94.17;97547.28;4998990;28;20459;-66
2023/09/24 07:48:39;;;;;;;6.65;1.63;;;;;;;15.64;91.69;97545.91;5005172;28;20456;-67
2023/09/24 07:51:05;;;;;;;3.47;1.45;;;;;;;15.85;94.20;97553.66;5004586;28;20049;-65
2023/09/24 07:53:31;;;;;;;5.00;1.60;;;;;;;16.42;90.66;97554.09;5005864;28;20087;-69
2023/09/24 07:56:09;;;;;;;3.08;1.40;;;;;;;17.03;84.11;97547.34;4999780;28;20045;-67
2023/09/24 07:58:36;;;;;;;3.50;1.40;;;;;;;16.10;86.92;97558.56;5003164;28;20060;-66
2023/09/24 08:01:09;;;;;;;5.05;1.52;;;;;;;16.27;88.89;97563.47;5004336;28;20057;-67
2023/09/24 08:03:35;;;;;;;4.18;1.40;;;;;;;16.38;89.37;97552.47;5007347;28;20046;-66
2023/09/24 08:06:02;;;;;;;4.60;1.67;;;;;;;15.18;90.97;97560.81;5012851;28;20045;-69
2023/09/24 08:08:33;;;;;;;3.90;1.67;;;;;;;14.69;95.24;97551.53;5022947;28;20077;-67
2023/09/24 08:10:58;;;;;;;3.08;1.50;;;;;;;15.04;93.99;97552.34;5009635;28;20100;-66
2023/09/24 08:13:25;;;;;;;3.25;1.55;;;;;;;16.36;88.63;97554.84;4997352;28;20916;-66
2023/09/24 08:15:50;;;;;;;3.42;1.40;;;;;;;15.24;94.83;97558.50;5011483;28;20045;-68
2023/09/24 08:18:17;;;;;;;5.07;1.60;;;;;;;15.28;94.33;97551.84;4998531;28;20476;-68
2023/09/24 08:20:43;;;;;;;4.25;1.42;;;;;;;16.50;85.25;97562.44;5003071;28;20042;-68
2023/09/24 08:23:09;;;;;;;4.13;1.77;;;;;;;15.36;89.04;97560.19;4999290;28;20073;-69
2023/09/24 08:25:35;;;;;;;5.53;1.45;;;;;;;15.31;91.23;97550.31;5003211;28;20080;-70
2023/09/24 08:28:01;;;;;;;5.80;1.63;;;;;;;16.24;86.65;97558.69;5003484;28;20054;-68
2023/09/24 08:30:29;;;;;;;5.07;1.80;;;;;;;15.62;87.45;97554.56;5006208;28;20053;-69
2023/09/24 08:32:54;;;;;;;3.05;1.63;;;;;;;15.21;89.57;97553.72;5003130;28;20049;-69
2023/09/24 08:35:20;;;;;;;6.53;1.67;;;;;;;15.08;93.24;97555.94;4998524;28;20049;-68
2023/09/24 08:37:45;;;;;;;2.97;1.60;;;;;;;15.34;94.99;97560.59;5019002;28;20056;-67
2023/09/24 08:40:11;;;;;;;3.25;1.65;;;;;;;15.52;92.45;97563.56;4998919;28;20046;-67
2023/09/24 08:42:37;;;;;;;5.95;1.80;;;;;;;15.92;85.80;97561.19;5001281;28;20046;-68
2023/09/24 08:45:14;;;;;;;4.05;1.35;;;;;;;16.14;85.85;97559.41;5013232;28;20048;-67
2023/09/24 08:47:41;;;;;;;3.42;1.58;;;;;;;15.68;89.41;97563.31;5007464;28;20069;-68
2023/09/24 08:50:07;;;;;;;3.72;1.50;;;;;;;15.75;93.24;97557.09;4998810;28;20069;-67
2023/09/24 08:52:54;;;;;;;4.63;1.65;;;;;;;15.84;88.89;97561.13;5002226;28;20050;-67
2023/09/24 08:55:20;;;;;;;5.78;1.48;;;;;;;15.70;89.66;97558.22;4998549;28;20129;-67
2023/09/24 08:57:46;;;;;;;6.00;1.30;;;;;;;15.85;89.17;97557.19;5001764;28;20442;-66
2023/09/24 09:00:14;;;;;;;4.22;1.50;;;;;;;16.73;84.83;97560.22;4997084;28;20054;-66
2023/09/24 09:02:41;;;;;;;4.50;1.52;;;;;;;16.68;84.33;97557.03;5002934;28;20045;-67
2023/09/24 09:05:11;;;;;;;6.28;1.50;;;;;;;16.41;84.86;97558.03;4997435;28;20404;-67
2023/09/24 09:07:37;;;;;;;4.53;1.70;;;;;;;17.00;80.86;97557.22;5002204;28;20053;-67
2023/09/24 09:10:04;;;;;;;4.75;1.70;;;;;;;16.00;84.89;97557.31;5000405;28;20049;-65
2023/09/24 09:12:30;;;;;;;5.88;1.30;;;;;;;16.29;87.65;97552.81;5001412;28;20465;-67
2023/09/24 09:14:56;;;;;;;4.35;1.58;;;;;;;16.70;84.25;97552.69;5003038;28;20046;-68
2023/09/24 09:17:22;;;;;;;3.83;1.65;;;;;;;15.99;87.27;97545.47;4997367;28;20099;-67
2023/09/24 09:19:57;;;;;;;4.75;1.65;;;;;;;15.88;87.09;97546.56;5001851;28;20527;-66
2023/09/24 09:22:27;;;;;;;4.40;1.63;;;;;;;16.38;83.89;97539.44;4996297;28;20542;-68
2023/09/24 09:25:02;;;;;;;3.45;1.55;;;;;;;16.26;85.09;97539.78;4999249;28;20081;-67
2023/09/24 09:27:32;;;;;;;3.97;1.45;;;;;;;17.78;80.33;97545.56;5014810;28;20054;-68
2023/09/24 09:30:15;;;;;;;3.50;1.30;;;;;;;17.66;76.29;97545.94;5018275;28;20405;-69
2023/09/24 09:32:44;;;;;;;5.55;1.38;;;;;;;17.46;75.47;97542.75;5003128;28;20103;-68
2023/09/24 09:35:10;;;;;;;;;;;;;;;17.43;79.75;97534.44;4998615;28;20507;-67
2023/09/24 09:37:40;;;;;;;3.70;1.40;;;;;;;17.37;78.43;97543.13;4997909;28;19918;-69
2023/09/24 09:40:06;;;;;;;4.97;1.83;;;;;;;17.32;78.26;97542.69;4998553;28;20046;-66
2023/09/24 09:42:35;;;;;;;2.30;1.35;;;;;;;16.43;84.26;97533.56;5001726;28;20543;-69
2023/09/24 09:45:06;;;;;;;4.28;1.70;;;;;;;17.15;82.25;97545.03;4999759;28;20056;-68
2023/09/24 09:47:36;;;;;;;3.08;1.50;;;;;;;16.78;81.68;97543.25;5002389;28;20064;-69
2023/09/24 09:50:03;;;;;;;4.80;1.85;;;;;;;16.95;79.62;97538.22;5002173;28;20057;-68
2023/09/24 09:52:43;;;;;;;2.50;1.42;;;;;;;17.61;82.83;97532.50;4999497;28;20132;-69
2023/09/24 09:55:09;;;;;;;2.30;1.38;;;;;;;17.15;79.72;97539.50;4996091;28;20054;-68
2023/09/24 09:57:35;;;;;;;5.22;1.80;;;;;;;17.09;79.62;97535.53;5000328;28;20072;-68
2023/09/24 10:00:05;;;;;;;4.00;1.38;;;;;;;17.98;80.85;97531.38;5003182;28;20519;-67
2023/09/24 10:02:31;;;;;;;4.45;1.48;;;;;;;18.43;73.80;97539.28;5004871;28;20053;-68
2023/09/24 10:04:57;;;;;;;3.05;1.33;;;;;;;17.82;77.66;97526.19;4999958;28;20072;-68
2023/09/24 10:07:23;;;;;;;3.72;1.70;;;;;;;17.39;76.87;97537.19;4997470;28;20548;-68
2023/09/24 10:09:50;;;;;;;5.05;1.67;;;;;;;17.78;74.83;97531.72;5001901;28;20073;-68
2023/09/24 10:12:34;;;;;;;3.33;1.42;;;;;;;18.04;79.53;97527.03;4995434;28;20042;-67
2023/09/24 10:15:26;;;;;;;4.00;1.50;;;;;;;19.41;69.59;97533.03;4994348;28;20037;-66
2023/09/24 10:18:07;;;;;;;3.67;1.40;;;;;;;17.33;73.49;97531.25;5000159;28;20041;-67
2023/09/24 10:20:53;;;;;;;5.75;1.60;;;;;;;17.92;70.72;97521.88;5002746;28;20045;-69
2023/09/24 10:23:37;;;;;;;5.53;1.33;;;;;;;19.32;67.08;97524.38;5010059;28;20456;-69
2023/09/24 10:26:06;;;;;;;3.67;1.27;;;;;;;20.58;61.26;97531.75;4992181;28;20061;-65
2023/09/24 10:28:47;;;;;;;3.90;1.40;;;;;;;19.85;62.16;97526.03;5001929;28;20061;-68
2023/09/24 10:31:13;;;;;;;4.50;1.30;;;;;;;17.42;71.75;97517.03;4995616;28;20046;-68
2023/09/24 10:34:05;;;;;;;3.13;1.30;;;;;;;17.84;73.65;97509.94;5003209;28;20634;-68
2023/09/24 10:36:34;;;;;;;4.00;1.27;;;;;;;18.68;68.78;97522.59;5003165;28;20136;-66
2023/09/24 10:39:08;;;;;;;5.15;1.30;;;;;;;18.02;72.85;97510.00;5011901;28;20038;-67
2023/09/24 10:41:35;;;;;;;3.17;1.10;;;;;;;18.76;69.33;97515.03;5004989;28;20046;-69
2023/09/24 10:44:20;;;;;;;4.65;1.20;;;;;;;19.27;67.23;97517.22;5003727;28;20579;-68
2023/09/24 10:46:46;;;;;;;4.10;1.20;;;;;;;18.57;68.63;97511.53;5002757;28;20064;-68
2023/09/24 10:49:18;;;;;;;3.58;1.27;;;;;;;16.99;68.17;97516.91;4998819;28;20401;-70
2023/09/24 10:51:43;;;;;;;4.13;1.25;;;;;;;17.06;70.86;97510.59;5005172;28;20049;-69
2023/09/24 10:54:16;;;;;;;4.78;1.20;;;;;;;17.23;71.62;97515.38;5000505;28;20064;-68
2023/09/24 10:56:48;;;;;;;4.30;1.10;;;;;;;18.51;67.94;97521.41;5003543;28;20077;-69
2023/09/24 10:59:15;;;;;;;6.20;2.83;;;;;;;18.10;67.39;97519.13;5009485;28;20042;-68
2023/09/24 11:01:41;;;;;;;3.13;1.70;;;;;;;18.62;68.23;97515.84;5009056;28;20046;-69
2023/09/24 11:04:08;;;;;;;5.10;1.70;;;;;;;18.30;63.81;97513.94;5011885;28;20050;-67
2023/09/24 11:06:34;;;;;;;5.88;1.88;;;;;;;17.53;66.30;97514.28;5012296;28;20049;-68
2023/09/24 11:09:15;;;;;;;4.70;1.10;;;;;;;18.22;64.55;97515.94;5003462;28;20396;-67
2023/09/24 11:11:41;;;;;;;7.03;1.52;;;;;;;18.38;63.88;97517.50;5011873;28;20124;-68
2023/09/24 11:14:22;;;;;;;4.55;1.05;;;;;;;17.77;63.12;97516.31;4999379;28;20046;-68
2023/09/24 11:16:52;;;;;;;3.67;1.23;;;;;;;17.96;61.31;97520.69;5005181;28;20145;-68
2023/09/24 11:19:40;;;;;;;3.78;1.17;;;;;;;17.88;62.10;97512.75;4998725;28;20401;-68
2023/09/24 11:22:20;;;;;;;6.80;1.15;;;;;;;17.70;60.07;97498.88;4992973;28;20542;-68
2023/09/24 11:24:46;;;;;;;;;;;;;;;17.60;64.56;97506.00;5004781;28;20091;-67
2023/09/24 11:27:12;;;;;;;4.05;1.10;;;;;;;17.69;64.75;97506.38;4996841;28;20391;-67
2023/09/24 11:29:38;;;;;;;4.15;1.20;;;;;;;17.86;63.72;97504.06;5003820;28;20058;-67
2023/09/24 11:32:03;;;;;;;7.13;1.08;;;;;;;18.30;61.91;97508.41;4999360;28;20042;-66
2023/09/24 11:34:29;;;;;;;5.35;1.13;;;;;;;18.67;59.97;97507.13;5003277;28;20088;-68
2023/09/24 11:36:58;;;;;;;4.60;1.10;;;;;;;18.21;61.27;97505.25;5003316;28;20077;-69